M I D A S
Marine Information and Data Acquisition System
Tripno 365 of the Zeeleeuw from 2002-11-26 08:20:16 to 2002-11-26 14:46:04
Back to CruiseResearch ActivitiesStationsMapUnderway DataData graphs

EquipmentUnitsComment
TimeDGPSUTC
LatitudeDGPSDM.mWGS84
LongitudeDGPSDM.mWGS84
HeadingGyrodeg 
SOGDGPSknotsSpeed over ground
COGDGPSdegCourse over ground
DepthEcho soundermeters200 kHz
Missing or incorrect values are displayed as -999
Navigation data collected by the RV Zeeleeuw from 2002-11-26 08:20:16 to 2002-11-26 14:46:04
Time Latitude Longitude Heading SOG COG Depth
2002-11-26 08:21:21 51°13.705 2°55.747 30.8 1.5 222.8 -999
2002-11-26 08:22:21 51°13.703 2°55.732 356.7 1.4 344.3 13
2002-11-26 08:23:21 51°13.761 2°55.688 340.5 5.6 333 10
2002-11-26 08:24:22 51°13.864 2°55.614 342.2 7.1 336.8 10.2
2002-11-26 08:25:21 51°13.974 2°55.537 342.5 7.5 337.3 10.1
2002-11-26 08:26:20 51°14.084 2°55.452 339.8 7.5 333.7 9.3
2002-11-26 08:27:21 51°14.206 2°55.344 331.7 8.8 326.2 9.8
2002-11-26 08:28:21 51°14.312 2°55.165 315 9.7 309.1 9.8
2002-11-26 08:29:21 51°14.444 2°54.99 339.7 11.2 331.3 9.6
2002-11-26 08:30:21 51°14.622 2°54.822 338.2 13 329.3 9.1
2002-11-26 08:31:20 51°14.807 2°54.646 338.5 13.3 329.7 9
2002-11-26 08:32:20 51°14.998 2°54.472 338.5 13.1 330.2 8.1
2002-11-26 08:33:20 51°15.188 2°54.298 339 13.3 330.2 8.4
2002-11-26 08:34:20 51°15.383 2°54.121 338.7 13.5 330 9.2
2002-11-26 08:35:21 51°15.581 2°53.937 339.2 13.4 329.9 10.1
2002-11-26 08:36:20 51°15.771 2°53.759 339.2 13.4 329.4 10.8
2002-11-26 08:37:20 51°15.965 2°53.575 339 13.9 329.1 11.4
2002-11-26 08:38:20 51°16.169 2°53.398 341.8 14 332.8 11.8
2002-11-26 08:39:20 51°16.376 2°53.222 341 14.1 331.9 11.9
2002-11-26 08:40:21 51°16.586 2°53.044 341 14.1 332.2 11.4
2002-11-26 08:41:20 51°16.789 2°52.875 340.8 13.9 332.4 9.1
2002-11-26 08:42:20 51°16.993 2°52.705 341.2 14 332.8 9.2
2002-11-26 08:43:20 51°17.2 2°52.534 340.3 14 332.1 9.3
2002-11-26 08:44:20 51°17.408 2°52.36 340.8 14.2 331.8 9.9
2002-11-26 08:45:20 51°17.591 2°52.124 326.7 14.2 318.1 10.1
2002-11-26 08:46:21 51°17.737 2°51.824 309.5 14.2 301.9 9.7
2002-11-26 08:47:20 51°17.862 2°51.511 310.8 14.3 303.3 9.9
2002-11-26 08:48:20 51°17.993 2°51.193 311.2 14.4 303.3 11
2002-11-26 08:49:20 51°18.125 2°50.878 311.2 14.3 303.5 12.3
2002-11-26 08:50:20 51°18.256 2°50.56 311.5 14.3 303.8 13.1
2002-11-26 08:51:20 51°18.39 2°50.245 311.7 14.3 304 13.6
2002-11-26 08:52:20 51°18.524 2°49.932 312 14.3 304.3 12.9
2002-11-26 08:53:20 51°18.658 2°49.619 312 14.3 304.7 10.5
2002-11-26 08:54:20 51°18.792 2°49.305 312.2 14.4 304.8 10.6
2002-11-26 08:55:20 51°18.928 2°48.987 312 14.6 304.2 11.3
2002-11-26 08:56:20 51°19.065 2°48.666 312 14.6 304.1 14.2
2002-11-26 08:57:20 51°19.199 2°48.349 311.5 14.4 304 16.8
2002-11-26 08:58:20 51°19.332 2°48.032 312.2 14.4 303.8 19
2002-11-26 08:59:20 51°19.466 2°47.717 312 14.3 304.1 21.1
2002-11-26 09:00:20 51°19.601 2°47.403 312 14.3 304.7 20.9
2002-11-26 09:01:20 51°19.729 2°47.084 302.2 14.3 295.7 20.7
2002-11-26 09:02:20 51°19.815 2°46.728 298 14.3 290.9 18
2002-11-26 09:03:20 51°19.897 2°46.37 294.8 14.3 288.3 15.6
2002-11-26 09:04:20 51°19.971 2°46.005 294.3 14.6 287.9 13.4
2002-11-26 09:05:20 51°20.048 2°45.637 294 14.5 287.9 15.6
2002-11-26 09:06:20 51°20.123 2°45.269 294.8 14.5 288.3 22.3
2002-11-26 09:07:20 51°20.195 2°44.904 293.8 14.4 287.3 23.7
2002-11-26 09:08:20 51°20.27 2°44.542 294.2 14.2 288.5 24.7
2002-11-26 09:09:20 51°20.333 2°44.175 289 14.4 283 26.5
2002-11-26 09:10:21 51°20.386 2°43.798 288.3 14.4 282.7 26.6
2002-11-26 09:11:20 51°20.437 2°43.433 288.7 14.4 282.8 26.1
2002-11-26 09:12:20 51°20.491 2°43.059 288.7 14.4 282.9 24
2002-11-26 09:13:20 51°20.544 2°42.685 289 14.5 283.2 21.4
2002-11-26 09:14:20 51°20.599 2°42.31 288.7 14.6 282.9 17.9
2002-11-26 09:15:20 51°20.654 2°41.931 289 14.7 283.3 16.6
2002-11-26 09:16:21 51°20.711 2°41.547 288.8 14.5 283.2 21.5
2002-11-26 09:17:21 51°20.766 2°41.172 289.2 14.5 283.5 25.9
2002-11-26 09:18:21 51°20.822 2°40.798 289.5 14.5 283.7 25.9
2002-11-26 09:19:21 51°20.878 2°40.422 288.7 14.5 283.7 25.3
2002-11-26 09:20:20 51°20.934 2°40.055 288.8 14.4 283.7 24.3
2002-11-26 09:21:20 51°20.999 2°39.687 293.3 14.4 287.7 24.4
2002-11-26 09:22:20 51°21.079 2°39.326 298.3 14.4 292.5 24.5
2002-11-26 09:23:20 51°21.193 2°38.992 316.3 14.3 308.7 24.5
2002-11-26 09:24:21 51°21.38 2°38.751 339.3 14.2 331 25.1
2002-11-26 09:25:20 51°21.593 2°38.605 347.8 14.1 338.2 26.3
2002-11-26 09:26:20 51°21.817 2°38.499 351.7 14 343.8 27.1
2002-11-26 09:27:20 51°22.041 2°38.387 350.2 14.1 342.2 29.3
2002-11-26 09:28:20 51°22.262 2°38.27 349.8 14 341.5 29
2002-11-26 09:29:20 51°22.485 2°38.15 349.5 14 341.2 29.5
2002-11-26 09:30:20 51°22.706 2°38.031 349.5 14.1 341.6 29
2002-11-26 09:31:20 51°22.929 2°37.908 348.2 14.2 340.3 29.2
2002-11-26 09:32:20 51°23.15 2°37.786 348.2 14.1 340.7 27.1
2002-11-26 09:33:20 51°23.37 2°37.656 347.2 14.1 339.5 25
2002-11-26 09:34:20 51°23.589 2°37.528 346.8 14.1 340.1 22.7
2002-11-26 09:35:20 51°23.808 2°37.392 343.5 14.1 336.3 22.7
2002-11-26 09:36:20 51°24.018 2°37.223 337 14.2 330.6 26.2
2002-11-26 09:37:20 51°24.225 2°37.037 337.2 14.2 330.8 30.1
2002-11-26 09:38:20 51°24.429 2°36.85 337.5 14.2 329.6 30.2
2002-11-26 09:39:20 51°24.638 2°36.673 341.5 14.2 333.4 30.2
2002-11-26 09:40:20 51°24.851 2°36.516 347.5 14.1 339.7 31.8
2002-11-26 09:41:21 51°25.076 2°36.392 348.3 14 340.4 32.7
2002-11-26 09:42:20 51°25.291 2°36.269 348.5 14 340.7 32.4
2002-11-26 09:43:20 51°25.512 2°36.147 348.5 14 341.1 31.3
2002-11-26 09:44:21 51°25.736 2°36.023 348 14.1 340.5 31.4
2002-11-26 09:45:20 51°25.953 2°35.902 348.5 14 340.8 32.1
2002-11-26 09:46:20 51°26.175 2°35.78 348 14.1 340.7 32.2
2002-11-26 09:47:20 51°26.396 2°35.656 348.5 14 341 31
2002-11-26 09:48:21 51°26.617 2°35.529 348 13.9 340.1 31.6
2002-11-26 09:49:20 51°26.832 2°35.406 347.8 14 339.9 29.3
2002-11-26 09:50:20 51°27.05 2°35.278 347.7 14 339.7 27
2002-11-26 09:51:20 51°27.269 2°35.149 347.7 13.9 339.2 27.8
2002-11-26 09:52:20 51°27.486 2°35.02 348.3 13.9 339.6 28.4
2002-11-26 09:53:21 51°27.708 2°34.887 348.3 14 339.9 31.7
2002-11-26 09:54:20 51°27.921 2°34.758 348 13.8 339 33.6
2002-11-26 09:55:20 51°28.137 2°34.631 348 13.8 340.3 34.4
2002-11-26 09:56:21 51°28.36 2°34.518 358.8 13.8 350.4 37
2002-11-26 09:57:20 51°28.582 2°34.532 22.5 13.5 15.1 38.2
2002-11-26 09:58:20 51°28.793 2°34.665 29.3 13.7 22.6 38.1
2002-11-26 09:59:20 51°28.987 2°34.847 47.5 13.5 41.2 36.6
2002-11-26 10:00:21 51°29.132 2°35.121 67.7 13.4 62.7 33.9
2002-11-26 10:01:21 51°29.221 2°35.45 71.5 13.4 66.7 34.8
2002-11-26 10:02:20 51°29.308 2°35.771 71.5 13.3 66.8 34.4
2002-11-26 10:03:21 51°29.396 2°36.103 71.5 13.3 66.3 31
2002-11-26 10:04:20 51°29.484 2°36.42 72.3 13.3 66.5 24.6
2002-11-26 10:05:20 51°29.571 2°36.744 72.2 13.2 66.8 24.5
2002-11-26 10:06:21 51°29.66 2°37.074 72.3 13.2 66.2 25
2002-11-26 10:07:20 51°29.801 2°37.327 43.5 13.1 36 22.6
2002-11-26 10:08:20 51°29.986 2°37.519 41.8 13.2 33.5 26.3
2002-11-26 10:09:20 51°30.165 2°37.72 43.8 13.1 36.7 31.4
2002-11-26 10:10:21 51°30.345 2°37.933 43 13.2 36.4 34.5
2002-11-26 10:11:21 51°30.524 2°38.143 43.7 13.4 36.6 35.2
2002-11-26 10:12:20 51°30.7 2°38.353 43.7 13.3 36.9 36.4
2002-11-26 10:13:20 51°30.874 2°38.567 44.5 13.3 37.8 35.9
2002-11-26 10:14:20 51°31.052 2°38.781 43.5 13.4 36.4 36.3
2002-11-26 10:15:21 51°31.233 2°38.999 43.8 13.4 37.1 36.1
2002-11-26 10:16:21 51°31.41 2°39.212 43.8 13.3 37.2 36.9
2002-11-26 10:17:21 51°31.602 2°39.38 25.3 13.2 16.6 37.1
2002-11-26 10:18:21 51°31.819 2°39.468 21.5 13.5 13.3 37.6
2002-11-26 10:19:20 51°32.033 2°39.555 22.8 13.5 14.6 37.3
2002-11-26 10:20:20 51°32.252 2°39.647 22.2 13.6 14.3 37.9
2002-11-26 10:21:21 51°32.474 2°39.74 22.5 13.5 14.7 36.6
2002-11-26 10:22:20 51°32.688 2°39.832 22.8 13.5 15.1 37
2002-11-26 10:23:20 51°32.905 2°39.925 22.8 13.5 15.2 37.1
2002-11-26 10:24:20 51°33.122 2°40.019 22.7 13.6 14.9 38
2002-11-26 10:25:20 51°33.34 2°40.107 18.8 13.5 11.8 38.8
2002-11-26 10:26:20 51°33.563 2°40.129 11.2 13.5 2.4 37.6
2002-11-26 10:27:20 51°33.788 2°40.138 7 13.5 358.5 34.5
2002-11-26 10:28:21 51°34.004 2°40.03 341.3 13.8 331.3 22.5
2002-11-26 10:29:21 51°34.167 2°39.767 314.3 14.3 305.1 15.4
2002-11-26 10:30:21 51°34.302 2°39.446 313.8 14.4 304.3 23.9
2002-11-26 10:31:20 51°34.438 2°39.139 315.2 14.3 306.3 27.8
2002-11-26 10:32:21 51°34.58 2°38.826 315 14.2 306.1 32.3
2002-11-26 10:33:21 51°34.718 2°38.519 315.3 14.2 305.4 35.9
2002-11-26 10:34:21 51°34.87 2°38.239 333.3 13.8 323 39.9
2002-11-26 10:35:21 51°35.074 2°38.099 357.8 13.3 347.9 39.8
2002-11-26 10:36:21 51°35.296 2°38.093 11.7 13.4 2.1 37.3
2002-11-26 10:37:20 51°35.514 2°38.137 19.2 13.4 10 39.6
2002-11-26 10:38:21 51°35.735 2°38.216 20.8 13.4 12.8 37.1
2002-11-26 10:39:21 51°35.946 2°38.323 29.5 13.3 21.4 37.2
2002-11-26 10:40:21 51°36.152 2°38.455 29.5 13.3 21.4 37.8
2002-11-26 10:41:21 51°36.358 2°38.587 29.3 13.3 21.7 37.3
2002-11-26 10:42:20 51°36.561 2°38.717 29.8 13.3 22.2 37.4
2002-11-26 10:43:20 51°36.768 2°38.849 29.2 13.3 21.7 38.8
2002-11-26 10:44:20 51°36.974 2°38.981 29 13.4 21.7 40.4
2002-11-26 10:45:21 51°37.176 2°39.137 45.7 13.2 36.4 39
2002-11-26 10:46:20 51°37.313 2°39.405 58 13.3 53 37.4
2002-11-26 10:47:20 51°37.446 2°39.688 58.2 13.1 52.4 35.5
2002-11-26 10:48:20 51°37.577 2°39.969 59.5 13.2 54.2 32.4
2002-11-26 10:49:20 51°37.709 2°40.248 58.7 13.1 52.8 30.1
2002-11-26 10:50:20 51°37.84 2°40.526 59 13 53.2 24.7
2002-11-26 10:51:21 51°37.971 2°40.808 64.8 13 58.2 22.7
2002-11-26 10:52:20 51°38.055 2°41.118 73 12.9 67.8 22.8
2002-11-26 10:53:21 51°38.14 2°41.444 71.2 12.8 67.1 21.6
2002-11-26 10:54:21 51°38.257 2°41.723 54.3 12.8 47.9 23.5
2002-11-26 10:55:20 51°38.422 2°41.936 43.7 13 36.7 27.8
2002-11-26 10:56:20 51°38.592 2°42.149 44.5 13 37.9 29.7
2002-11-26 10:57:20 51°38.761 2°42.366 44.5 13 38.2 32
2002-11-26 10:58:20 51°38.93 2°42.587 44.8 13.1 38.9 33.1
2002-11-26 10:59:20 51°39.098 2°42.81 45.8 13.1 39.6 33.4
2002-11-26 11:00:20 51°39.267 2°43.028 36.3 12.9 31.1 34.2
2002-11-26 11:01:20 51°39.478 2°43.056 3.3 13 354.9 34.3
2002-11-26 11:02:20 51°39.687 2°42.939 348.3 13.4 338.7 32.4
2002-11-26 11:03:20 51°39.895 2°42.811 349.7 13.4 339.6 31.9
2002-11-26 11:04:20 51°40.097 2°42.65 336.8 13.7 326.8 31.5
2002-11-26 11:05:20 51°40.281 2°42.437 331.7 13.7 321.5 31.1
2002-11-26 11:06:20 51°40.446 2°42.178 324.3 14 313.4 31.5
2002-11-26 11:07:21 51°40.605 2°41.896 322.3 14 312 29.1
2002-11-26 11:08:20 51°40.76 2°41.625 323.5 13.9 313.2 35.9
2002-11-26 11:09:20 51°40.904 2°41.333 312.3 14.1 302.3 33.5
2002-11-26 11:10:20 51°41.025 2°41.011 312.5 14.1 301.6 35.1
2002-11-26 11:11:20 51°41.151 2°40.695 313.8 14 303.1 37.7
2002-11-26 11:12:20 51°41.278 2°40.379 313.7 14.1 303 37.5
2002-11-26 11:13:20 51°41.405 2°40.062 313.3 14 302.6 39.2
2002-11-26 11:14:20 51°41.531 2°39.75 313.7 13.9 302.8 37.7
2002-11-26 11:15:20 51°41.659 2°39.44 314 13.9 303.5 41.6
2002-11-26 11:16:20 51°41.786 2°39.129 314 13.9 303.1 43.4
2002-11-26 11:17:20 51°41.915 2°38.818 313.7 14 303.1 41
2002-11-26 11:18:20 51°42.043 2°38.506 313.5 13.9 303.3 39.1
2002-11-26 11:19:20 51°42.172 2°38.196 314.2 13.9 303.8 36.9
2002-11-26 11:20:21 51°42.302 2°37.879 314.2 14 303.5 37.1
2002-11-26 11:21:20 51°42.428 2°37.571 314.3 14 304 34.1
2002-11-26 11:22:20 51°42.557 2°37.259 314.2 14 303.5 31.7
2002-11-26 11:23:20 51°42.687 2°36.948 314 14.1 303.7 31.9
2002-11-26 11:24:20 51°42.711 2°36.598 247.7 14.1 242.6 30.8
2002-11-26 11:25:20 51°42.545 2°36.308 225.5 15 221.9 33.2
2002-11-26 11:26:20 51°42.359 2°36.043 222 15.1 217.2 32.7
2002-11-26 11:27:20 51°42.162 2°35.791 224.3 15.1 220.6 31.1
2002-11-26 11:28:20 51°41.97 2°35.529 223.5 15.2 220 29.1
2002-11-26 11:29:20 51°41.778 2°35.268 222.3 15.1 219 24.9
2002-11-26 11:30:20 51°41.583 2°35.01 224.5 15 220.8 35.6
2002-11-26 11:31:20 51°41.39 2°34.751 223.2 15.2 219.7 36.8
2002-11-26 11:32:20 51°41.195 2°34.491 224.2 15.1 220 35.4
2002-11-26 11:33:20 51°41.004 2°34.223 225.3 15.3 221.5 33.9
2002-11-26 11:34:20 51°40.813 2°33.957 225.8 15.1 221.7 41.8
2002-11-26 11:35:20 51°40.623 2°33.69 224 15.1 220.1 39
2002-11-26 11:36:20 51°40.433 2°33.423 225.3 15.1 221.6 38.4
2002-11-26 11:37:21 51°40.24 2°33.156 225 15.1 220.7 39.6
2002-11-26 11:38:20 51°40.054 2°32.898 224.8 15.1 220.4 38
2002-11-26 11:39:20 51°39.865 2°32.635 225.3 14.9 221.4 40.5
2002-11-26 11:40:20 51°39.677 2°32.371 224.3 15.1 220.8 38.6
2002-11-26 11:41:20 51°39.487 2°32.101 224.5 15.2 220.6 37.8
2002-11-26 11:42:20 51°39.299 2°31.831 225.7 15.1 221.8 32.6
2002-11-26 11:43:20 51°39.11 2°31.564 225.2 15.1 221.6 36
2002-11-26 11:44:20 51°38.922 2°31.297 224.8 15.2 221.4 33.1
2002-11-26 11:45:20 51°38.734 2°31.026 225.3 15.1 222.2 32.1
2002-11-26 11:46:20 51°38.546 2°30.756 224.2 15.1 221.1 28.7
2002-11-26 11:47:20 51°38.356 2°30.49 225 15 222.3 36
2002-11-26 11:48:20 51°38.166 2°30.226 223.3 15.1 220.5 36.4
2002-11-26 11:49:20 51°37.975 2°29.961 221.5 15.1 219.7 35.9
2002-11-26 11:50:20 51°37.779 2°29.706 222.5 15.2 219.5 32.2
2002-11-26 11:51:20 51°37.585 2°29.446 221.2 15.2 219 35.3
2002-11-26 11:52:20 51°37.393 2°29.187 222 15.3 218.6 36.1
2002-11-26 11:53:21 51°37.196 2°28.923 222.3 15.2 219.9 36.2
2002-11-26 11:54:20 51°37.004 2°28.667 221.8 15.2 219.3 37.7
2002-11-26 11:55:20 51°36.808 2°28.408 222.3 15.3 219.6 37.6
2002-11-26 11:56:20 51°36.612 2°28.149 220.5 15.3 218.3 35.9
2002-11-26 11:57:20 51°36.411 2°27.895 219.8 15.3 217.7 36
2002-11-26 11:58:21 51°36.205 2°27.64 219 15.5 216.9 35.7
2002-11-26 11:59:20 51°36.007 2°27.393 220.3 15.4 218.3 36
2002-11-26 12:00:20 51°35.807 2°27.139 219.5 15.3 217.7 36.3
2002-11-26 12:01:21 51°35.6 2°26.885 220.3 15.5 218.3 36
2002-11-26 12:02:20 51°35.398 2°26.644 217.5 15.6 215.7 36.4
2002-11-26 12:03:21 51°35.185 2°26.401 216.5 15.3 214.8 36.3
2002-11-26 12:04:20 51°34.973 2°26.184 216.2 15.5 214.2 35.6
2002-11-26 12:05:21 51°34.758 2°25.944 216.5 15.4 214.8 37.8
2002-11-26 12:06:20 51°34.55 2°25.715 214.5 15.4 213.1 37.7
2002-11-26 12:07:21 51°34.328 2°25.493 213.2 15.6 212 37.4
2002-11-26 12:08:20 51°34.115 2°25.278 213.8 15.4 212 37.5
2002-11-26 12:09:20 51°33.898 2°25.061 214.2 15.4 212.4 36.1
2002-11-26 12:10:20 51°33.677 2°24.843 214.3 15.3 212.3 34.7
2002-11-26 12:11:21 51°33.464 2°24.614 217.3 15.3 215.8 34.4
2002-11-26 12:12:20 51°33.259 2°24.385 217.3 15.2 215 33.7
2002-11-26 12:13:20 51°33.052 2°24.152 217.5 15.2 214.8 33.2
2002-11-26 12:14:20 51°32.846 2°23.921 216.8 15.2 214.8 34.8
2002-11-26 12:15:20 51°32.641 2°23.686 220.3 15.1 217 30.8
2002-11-26 12:16:20 51°32.44 2°23.44 219.7 15.3 217.6 30.2
2002-11-26 12:17:21 51°32.234 2°23.192 219.8 15.1 217.4 32.8
2002-11-26 12:18:21 51°32.034 2°22.95 220.3 15.1 216.7 31.3
2002-11-26 12:19:21 51°31.836 2°22.71 219.8 14.9 216.4 29.8
2002-11-26 12:20:20 51°31.641 2°22.476 220 14.8 216.6 25.8
2002-11-26 12:21:20 51°31.432 2°22.28 194.5 14.6 194.5 30.8
2002-11-26 12:22:20 51°31.22 2°22.397 136.2 13.7 137.5 31.3
2002-11-26 12:23:20 51°31.083 2°22.69 124.2 13.7 124.7 31.2
2002-11-26 12:24:20 51°30.947 2°22.989 124.7 13.8 126.5 31.9
2002-11-26 12:25:20 51°30.806 2°23.283 128 14 129.2 34.2
2002-11-26 12:26:20 51°30.66 2°23.572 128.3 13.9 129.2 35.2
2002-11-26 12:27:20 51°30.513 2°23.862 128.5 14 129.3 33.2
2002-11-26 12:28:20 51°30.369 2°24.155 127 13.9 127.5 39.7
2002-11-26 12:29:20 51°30.228 2°24.449 126.5 13.9 127.1 39.6
2002-11-26 12:30:20 51°30.086 2°24.742 127 13.8 127.7 38.2
2002-11-26 12:31:20 51°29.945 2°25.036 127.2 13.9 126.3 34.9
2002-11-26 12:32:20 51°29.806 2°25.337 126.3 14 125.7 31.1
2002-11-26 12:33:20 51°29.67 2°25.642 127.7 14.2 126.7 31.1
2002-11-26 12:34:20 51°29.532 2°25.946 127.2 14.1 126.6 29.7
2002-11-26 12:35:20 51°29.391 2°26.246 127.5 14.1 127.7 30.3
2002-11-26 12:36:21 51°29.25 2°26.553 126.7 14.1 126.1 34.2
2002-11-26 12:37:20 51°29.114 2°26.848 127.3 14.1 126.5 32.5
2002-11-26 12:38:20 51°28.997 2°27.09 130.8 8.3 131.1 33.5
2002-11-26 12:39:20 51°28.932 2°27.17 159.2 2.8 164.2 34.2
2002-11-26 12:40:22 51°28.916 2°27.17 164 0.4 207.2 -999
2002-11-26 12:41:21 51°28.91 2°27.166 150.8 0.3 205.8 34.1
2002-11-26 12:42:20 51°28.902 2°27.163 141 0.5 189.9 34.4
2002-11-26 12:43:20 51°28.896 2°27.161 127.7 0.5 185.5 34.3
2002-11-26 12:44:20 51°28.888 2°27.161 119 0.7 180 34.4
2002-11-26 12:45:20 51°28.879 2°27.162 119.3 0.6 171.1 34.6
2002-11-26 12:46:21 51°28.838 2°27.241 132.8 7.4 130 31.1
2002-11-26 12:47:20 51°28.668 2°27.377 170.5 13.5 167.6 33
2002-11-26 12:48:20 51°28.433 2°27.343 193.5 14.5 191 32.3
2002-11-26 12:49:20 51°28.193 2°27.259 196.7 14.9 193.3 32.8
2002-11-26 12:50:20 51°27.956 2°27.163 197 14.7 194.2 26.4
2002-11-26 12:51:20 51°27.717 2°27.062 198.7 14.8 195.9 25.1
2002-11-26 12:52:20 51°27.478 2°26.952 199 14.9 196 23.9
2002-11-26 12:53:20 51°27.238 2°26.841 199 15.1 195.9 22.6
2002-11-26 12:54:20 51°26.998 2°26.728 198.5 15 196.1 25.2
2002-11-26 12:55:20 51°26.757 2°26.621 199.3 15 196.6 25.1
2002-11-26 12:56:20 51°26.519 2°26.507 199.2 15 196.1 28.2
2002-11-26 12:57:20 51°26.28 2°26.399 199.8 14.8 196.8 32
2002-11-26 12:58:20 51°26.041 2°26.289 198.8 14.8 195.6 34.5
2002-11-26 12:59:20 51°25.803 2°26.179 198.5 14.9 195.4 32.9
2002-11-26 13:00:22 51°25.557 2°26.067 198.5 14.8 195.4 34.4
2002-11-26 13:01:20 51°25.325 2°25.965 197.2 15 194.7 33.3
2002-11-26 13:02:21 51°25.08 2°25.864 196.8 15.1 195.7 34
2002-11-26 13:03:20 51°24.842 2°25.765 197 15 194.9 34.9
2002-11-26 13:04:20 51°24.599 2°25.663 196.5 15.1 194.2 36.9
2002-11-26 13:05:21 51°24.353 2°25.56 197.5 15.1 194.9 32.7
2002-11-26 13:06:20 51°24.115 2°25.461 197.3 15.1 194.7 33.5
2002-11-26 13:07:20 51°23.876 2°25.362 197.7 14.8 195.1 33.3
2002-11-26 13:08:20 51°23.638 2°25.264 196.7 14.6 194.2 34.1
2002-11-26 13:09:20 51°23.401 2°25.166 196.2 14.6 193.8 34.2
2002-11-26 13:10:20 51°23.17 2°25.195 159.7 14 158.8 33.7
2002-11-26 13:11:20 51°23.008 2°25.451 122.5 13.8 120.3 29
2002-11-26 13:12:20 51°22.894 2°25.775 124.7 14.1 122.1 19.1
2002-11-26 13:13:20 51°22.766 2°26.09 125.7 14.1 123.6 26.2
2002-11-26 13:14:21 51°22.636 2°26.41 124.8 14 123.2 31.2
2002-11-26 13:15:21 51°22.526 2°26.737 116.7 13.9 115.2 34.6
2002-11-26 13:16:21 51°22.434 2°27.075 114 13.9 112.2 34.3
2002-11-26 13:17:21 51°22.343 2°27.414 114.7 13.8 112.6 34.9
2002-11-26 13:18:20 51°22.259 2°27.752 112.5 13.9 111.2 34.5
2002-11-26 13:19:21 51°22.181 2°28.107 107.2 13.8 105.5 34.3
2002-11-26 13:20:22 51°22.127 2°28.469 106.2 13.8 103.4 35.5
2002-11-26 13:21:20 51°22.078 2°28.815 105.2 13.8 102.6 33.5
2002-11-26 13:22:21 51°22.026 2°29.178 105.7 13.8 102.5 33.9
2002-11-26 13:23:20 51°21.973 2°29.53 106.3 13.8 103.2 33.5
2002-11-26 13:24:20 51°21.921 2°29.889 105.7 13.9 102.9 34.2
2002-11-26 13:25:22 51°21.865 2°30.259 106 13.9 103.8 32.4
2002-11-26 13:26:20 51°21.813 2°30.607 105.7 13.9 102.9 32.3
2002-11-26 13:27:20 51°21.761 2°30.967 105.7 14 103 30.3
2002-11-26 13:28:20 51°21.708 2°31.328 106 14 103 29.3
2002-11-26 13:29:20 51°21.652 2°31.694 105.8 14.2 103.8 24.8
2002-11-26 13:30:20 51°21.596 2°32.058 105.8 14 103.8 21.8
2002-11-26 13:31:20 51°21.537 2°32.421 106.7 14.1 105.7 19.8
2002-11-26 13:32:20 51°21.475 2°32.785 106.3 14.2 105.1 23.3
2002-11-26 13:33:20 51°21.415 2°33.151 106.5 14.2 104.6 28.1
2002-11-26 13:34:20 51°21.361 2°33.518 106 14.2 102.9 31.1
2002-11-26 13:35:21 51°21.305 2°33.893 106 14.3 103.1 32.6
2002-11-26 13:36:22 51°21.249 2°34.269 106.2 14.2 103.3 31.1
2002-11-26 13:37:20 51°21.199 2°34.623 106 14.1 102.9 31.6
2002-11-26 13:38:20 51°21.143 2°34.988 106.7 14 104.1 32.8
2002-11-26 13:39:20 51°21.091 2°35.351 105.2 14.1 102.6 30.7
2002-11-26 13:40:20 51°21.047 2°35.718 103.5 14.1 100.4 30.5
2002-11-26 13:41:20 51°20.999 2°36.089 104.8 14.2 101.6 26.1
2002-11-26 13:42:21 51°20.957 2°36.468 101 14.3 98.7 25.4
2002-11-26 13:43:20 51°20.919 2°36.837 102.2 14.2 99.4 23.6
2002-11-26 13:44:20 51°20.881 2°37.212 101.7 14.4 99 24.6
2002-11-26 13:45:20 51°20.842 2°37.587 102.2 14.4 99.3 25.2
2002-11-26 13:46:20 51°20.805 2°37.963 102 14.4 98.7 24.9
2002-11-26 13:47:20 51°20.766 2°38.337 102 14.3 99.2 25.1
2002-11-26 13:48:20 51°20.729 2°38.712 101.5 14.3 98.6 24.8
2002-11-26 13:49:20 51°20.691 2°39.09 102.3 14.3 99.2 26.2
2002-11-26 13:50:21 51°20.642 2°39.471 109.3 14.3 105.9 26.9
2002-11-26 13:51:20 51°20.576 2°39.832 109.7 14.4 106 27.8
2002-11-26 13:52:20 51°20.511 2°40.2 108.8 14.4 105.1 28.5
2002-11-26 13:53:20 51°20.447 2°40.571 109.5 14.6 105.5 28.9
2002-11-26 13:54:21 51°20.384 2°40.947 109.5 14.5 105.2 29.4
2002-11-26 13:55:20 51°20.322 2°41.312 109.3 14.5 105.3 21.5
2002-11-26 13:56:20 51°20.26 2°41.685 109.8 14.5 105 19.5
2002-11-26 13:57:20 51°20.199 2°42.059 109.3 14.5 104.6 20.2
2002-11-26 13:58:20 51°20.138 2°42.435 109.2 14.5 104 23.6
2002-11-26 13:59:21 51°20.076 2°42.815 109.8 14.6 105 26.7
2002-11-26 14:00:20 51°20.015 2°43.181 108.3 14.4 103.8 27.6
2002-11-26 14:01:20 51°19.953 2°43.553 108.7 14.4 104.9 27.9
2002-11-26 14:02:20 51°19.893 2°43.923 109.2 14.4 104.5 26.4
2002-11-26 14:03:20 51°19.833 2°44.294 108.7 14.5 104.2 25.5
2002-11-26 14:04:20 51°19.77 2°44.662 114.2 14.4 108.5 23.5
2002-11-26 14:05:20 51°19.689 2°45.026 114.3 14.5 108.9 22.3
2002-11-26 14:06:20 51°19.614 2°45.389 114.7 14.4 109.2 13.7
2002-11-26 14:07:21 51°19.538 2°45.761 113.5 14.6 107.2 15.7
2002-11-26 14:08:20 51°19.466 2°46.119 113 14.3 107.3 19.4
2002-11-26 14:09:20 51°19.395 2°46.479 115 14.2 108.9 20.7
2002-11-26 14:10:20 51°19.312 2°46.826 119.2 13.9 112.6 22.7
2002-11-26 14:11:21 51°19.223 2°47.179 118.5 14 112.3 22.7
2002-11-26 14:12:20 51°19.131 2°47.517 120.8 14.2 114.5 21.6
2002-11-26 14:13:21 51°19.026 2°47.862 122.7 14.1 116.5 19.9
2002-11-26 14:14:21 51°18.922 2°48.204 121.5 14.3 115.2 17.4
2002-11-26 14:15:21 51°18.816 2°48.544 126.3 14.2 119.5 15
2002-11-26 14:16:21 51°18.697 2°48.873 126.2 14.3 119.7 13
2002-11-26 14:17:21 51°18.579 2°49.205 125.7 14.5 119.2 12.3
2002-11-26 14:18:21 51°18.46 2°49.537 126.7 14.4 119.6 13.3
2002-11-26 14:19:20 51°18.343 2°49.863 125.8 14.2 119.5 15.4
2002-11-26 14:20:20 51°18.227 2°50.188 126 14.1 119.4 15.8
2002-11-26 14:21:20 51°18.109 2°50.512 126 14.2 119.9 15
2002-11-26 14:22:21 51°17.992 2°50.844 126.2 14.2 119.5 13.9
2002-11-26 14:23:21 51°17.875 2°51.172 126.7 14.2 119.7 12.9
2002-11-26 14:24:20 51°17.76 2°51.493 127.3 14.4 120.2 12
2002-11-26 14:25:20 51°17.63 2°51.804 133.7 14.2 126.7 12
2002-11-26 14:26:21 51°17.481 2°52.103 137.7 14.1 130.4 12.3
2002-11-26 14:27:20 51°17.322 2°52.365 145.8 13.8 138.4 12.3
2002-11-26 14:28:20 51°17.137 2°52.586 154.8 14 146.9 11.3
2002-11-26 14:29:20 51°16.941 2°52.791 157.5 13.9 148.7 11.2
2002-11-26 14:30:20 51°16.737 2°52.977 158.5 14.5 149.9 13.1
2002-11-26 14:31:20 51°16.526 2°53.135 168.7 13.9 158.7 14.1
2002-11-26 14:32:20 51°16.306 2°53.238 176.2 13.7 167.2 14.2
2002-11-26 14:33:21 51°16.083 2°53.332 172 13.8 162.8 14.1
2002-11-26 14:34:20 51°15.87 2°53.462 168.8 13.7 159.3 13.7
2002-11-26 14:35:20 51°15.652 2°53.578 166.7 13.9 158.1 13
2002-11-26 14:36:20 51°15.442 2°53.728 163 13.8 154 12.3
2002-11-26 14:37:20 51°15.249 2°53.929 151.8 13.8 142.1 11.4
2002-11-26 14:38:20 51°15.072 2°54.156 155.2 12.7 144.3 11
2002-11-26 14:39:21 51°14.901 2°54.33 159.2 11.9 148.3 11.2
2002-11-26 14:40:21 51°14.734 2°54.502 153.8 11.9 142.5 11.9
2002-11-26 14:41:20 51°14.591 2°54.719 149.8 12.1 138.4 11.8
2002-11-26 14:42:20 51°14.446 2°54.942 144.7 12.3 133.3 12.4
2002-11-26 14:43:20 51°14.315 2°55.188 138.3 11.5 133.2 12.2
2002-11-26 14:44:20 51°14.211 2°55.336 145.3 7 140.7 12.1
2002-11-26 14:45:21 51°14.124 2°55.417 161.8 5.4 156.2 11.5